Time;durP1;ratioP1;P1;durP2;ratioP2;P2;SDS_P1;SDS_P2;PMS_P1;PMS_P2;Temp;Humidity;BMP_temperature;BMP_pressure;BME280_temperature;BME280_humidity;BME280_pressure;Samples;Min_cycle;Max_cycle;Signal;HPM_P1;HPM_P2
2022/07/23 00:01:07;;;;;;;6.50;2.55;;;20.10;68.80;;;;;;5097154;28;20039;-75
2022/07/23 00:03:33;;;;;;;4.00;2.40;;;20.10;69.10;;;;;;5115156;28;20036;-75
2022/07/23 00:05:58;;;;;;;3.70;2.42;;;20.10;68.80;;;;;;5096873;28;20036;-75
2022/07/23 00:08:24;;;;;;;3.58;2.25;;;19.90;69.30;;;;;;5114888;28;20050;-75
2022/07/23 00:10:50;;;;;;;4.43;2.40;;;20.00;69.40;;;;;;5097199;28;20028;-75
2022/07/23 00:13:15;;;;;;;3.30;2.17;;;20.00;69.40;;;;;;5096825;28;20032;-75
2022/07/23 00:15:41;;;;;;;3.78;2.40;;;20.10;69.20;;;;;;5114960;28;20020;-76
2022/07/23 00:18:07;;;;;;;6.38;2.47;;;20.10;68.80;;;;;;5114704;28;20059;-75
2022/07/23 00:20:32;;;;;;;4.10;2.30;;;20.10;68.60;;;;;;5114710;28;20035;-75
2022/07/23 00:22:58;;;;;;;4.97;2.30;;;20.00;68.80;;;;;;5096697;28;20028;-75
2022/07/23 00:25:25;;;;;;;3.92;2.25;;;19.80;68.90;;;;;;5114592;28;20032;-75
2022/07/23 00:27:50;;;;;;;3.35;2.50;;;19.80;69.00;;;;;;5114411;28;20028;-75
2022/07/23 00:30:16;;;;;;;4.35;2.60;;;19.60;69.10;;;;;;5114508;28;20076;-75
2022/07/23 00:32:53;;;;;;;3.15;2.10;;;19.60;69.30;;;;;;5114455;28;20091;-75
2022/07/23 00:35:24;;;;;;;3.88;2.30;;;19.70;69.20;;;;;;5114404;28;20590;-76
2022/07/23 00:37:50;;;;;;;3.42;2.40;;;19.70;68.90;;;;;;5114377;28;20114;-75
2022/07/23 00:40:15;;;;;;;3.85;2.65;;;19.60;68.70;;;;;;5114454;28;20036;-75
2022/07/23 00:42:41;;;;;;;3.22;2.30;;;19.50;69.10;;;;;;5114273;28;20070;-76
2022/07/23 00:45:07;;;;;;;5.63;2.70;;;19.40;69.20;;;;;;5114222;28;20038;-75
2022/07/23 00:47:33;;;;;;;7.45;2.67;;;19.30;69.20;;;;;;5096158;28;20064;-75
2022/07/23 00:49:59;;;;;;;4.40;2.45;;;19.40;69.40;;;;;;5114170;28;20024;-75
2022/07/23 00:52:25;;;;;;;5.80;2.60;;;19.40;69.50;;;;;;5114135;28;20054;-75
2022/07/23 00:54:51;;;;;;;3.25;2.45;;;19.40;69.40;;;;;;5114106;28;20031;-75
2022/07/23 00:57:17;;;;;;;5.43;3.10;;;19.30;69.50;;;;;;5114040;28;20028;-75
2022/07/23 00:59:43;;;;;;;8.43;2.95;;;19.20;69.40;;;;;;5095989;28;20032;-75
2022/07/23 01:02:09;;;;;;;4.07;2.60;;;19.00;69.70;;;;;;5113957;28;20084;-75
2022/07/23 01:04:35;;;;;;;5.72;2.75;;;19.00;70.50;;;;;;5113960;28;20024;-75
2022/07/23 01:07:01;;;;;;;4.10;2.88;;;18.90;69.70;;;;;;5095719;28;20059;-75
2022/07/23 01:09:26;;;;;;;4.53;2.70;;;18.90;69.80;;;;;;5096110;28;20028;-75
2022/07/23 01:11:54;;;;;;;3.90;2.97;;;19.00;70.10;;;;;;5113809;28;20079;-75
2022/07/23 01:14:20;;;;;;;4.30;2.97;;;19.00;70.50;;;;;;5113835;28;20016;-75
2022/07/23 01:16:47;;;;;;;3.95;2.90;;;18.80;70.60;;;;;;5113794;28;20028;-75
2022/07/23 01:19:13;;;;;;;4.80;2.50;;;18.50;70.90;;;;;;5113711;28;20031;-75
2022/07/23 01:21:42;;;;;;;8.00;3.17;;;18.40;71.20;;;;;;5095882;28;20032;-75
2022/07/23 01:24:09;;;;;;;4.07;2.45;;;18.50;71.00;;;;;;5113653;28;20410;-75
2022/07/23 01:26:35;;;;;;;5.45;2.92;;;18.60;71.20;;;;;;5113668;28;20016;-75
2022/07/23 01:29:02;;;;;;;4.07;2.60;;;18.60;70.80;;;;;;5113466;28;20084;-75
2022/07/23 01:31:27;;;;;;;3.50;2.58;;;18.60;71.00;;;;;;5113564;28;20049;-75
2022/07/23 01:33:53;;;;;;;4.07;2.80;;;18.50;71.20;;;;;;5113541;28;20032;-75
2022/07/23 01:36:19;;;;;;;4.18;2.67;;;18.50;71.20;;;;;;5113552;28;20047;-75
2022/07/23 01:38:44;;;;;;;5.95;2.70;;;18.60;70.90;;;;;;5113494;28;20025;-75
2022/07/23 01:41:10;;;;;;;5.30;2.92;;;18.60;70.90;;;;;;5113545;28;20032;-75
2022/07/23 01:43:35;;;;;;;5.15;2.88;;;18.60;70.90;;;;;;5113616;28;20046;-76
2022/07/23 01:46:01;;;;;;;5.45;3.00;;;18.50;70.70;;;;;;5095699;28;20032;-76
2022/07/23 01:48:27;;;;;;;3.20;2.75;;;18.50;70.90;;;;;;5113502;28;20047;-75
2022/07/23 01:50:52;;;;;;;3.75;3.08;;;18.50;70.70;;;;;;5113386;28;20028;-75
2022/07/23 01:53:18;;;;;;;5.40;2.65;;;18.50;70.70;;;;;;5113041;28;20036;-75
2022/07/23 01:55:43;;;;;;;4.28;2.97;;;18.50;70.50;;;;;;5113479;28;20035;-76
2022/07/23 01:58:09;;;;;;;4.20;3.00;;;18.40;70.50;;;;;;5113320;28;20024;-75
2022/07/23 02:00:35;;;;;;;4.63;3.00;;;18.20;70.30;;;;;;5113337;28;20040;-75
2022/07/23 02:03:01;;;;;;;3.30;2.60;;;18.20;70.70;;;;;;5113295;28;20078;-75
2022/07/23 02:05:28;;;;;;;6.13;3.10;;;18.20;70.60;;;;;;5113293;28;20028;-75
2022/07/23 02:07:54;;;;;;;4.72;3.20;;;18.20;70.50;;;;;;5113040;28;20036;-76
2022/07/23 02:10:21;;;;;;;5.45;2.85;;;18.10;70.70;;;;;;5113225;28;20048;-75
2022/07/23 02:12:47;;;;;;;3.90;2.70;;;18.00;70.90;;;;;;5116846;28;20032;-75
2022/07/23 02:15:12;;;;;;;4.63;2.72;;;18.00;70.90;;;;;;5099233;28;20044;-76
2022/07/23 02:17:38;;;;;;;5.28;2.80;;;17.90;70.80;;;;;;5117257;28;20032;-75
2022/07/23 02:20:05;;;;;;;7.55;3.20;;;17.90;71.20;;;;;;5117216;28;20098;-75
2022/07/23 02:22:31;;;;;;;4.63;3.10;;;18.00;71.00;;;;;;5117102;28;20081;-76
2022/07/23 02:24:56;;;;;;;5.47;3.17;;;17.90;70.80;;;;;;5116938;28;20084;-76
2022/07/23 02:27:22;;;;;;;5.95;3.30;;;17.90;70.90;;;;;;5116840;28;20055;-75
2022/07/23 02:29:48;;;;;;;5.95;3.30;;;17.90;71.00;;;;;;5116786;28;20034;-75
2022/07/23 02:32:14;;;;;;;4.97;3.40;;;17.90;71.00;;;;;;5116853;28;20050;-75
2022/07/23 02:34:40;;;;;;;5.90;3.60;;;17.80;70.80;;;;;;5098952;28;20032;-75
2022/07/23 02:37:05;;;;;;;5.85;3.20;;;17.70;71.10;;;;;;5116722;28;20082;-75
2022/07/23 02:39:31;;;;;;;4.70;3.08;;;17.80;71.10;;;;;;5082059;28;20036;-76
2022/07/23 02:41:56;;;;;;;4.88;2.95;;;17.90;71.10;;;;;;5116646;28;20050;-75
2022/07/23 02:44:22;;;;;;;3.80;3.20;;;17.90;70.80;;;;;;5116587;28;20091;-75
2022/07/23 02:46:48;;;;;;;5.43;2.80;;;17.80;71.00;;;;;;5116428;28;20050;-75
2022/07/23 02:49:14;;;;;;;4.80;2.70;;;17.80;71.30;;;;;;5098539;28;20028;-75
2022/07/23 02:51:39;;;;;;;4.03;2.92;;;17.80;70.70;;;;;;5116474;28;20024;-75
2022/07/23 02:54:05;;;;;;;5.63;2.67;;;17.70;70.50;;;;;;5116396;28;20035;-75
2022/07/23 02:56:30;;;;;;;3.47;2.53;;;17.60;70.70;;;;;;5116368;28;20028;-75
2022/07/23 02:58:56;;;;;;;3.28;2.50;;;17.30;71.20;;;;;;5116316;28;20039;-75
2022/07/23 03:01:22;;;;;;;5.07;2.90;;;17.10;72.00;;;;;;5116288;28;20025;-75
2022/07/23 03:03:47;;;;;;;4.22;2.95;;;17.00;73.10;;;;;;5098390;28;20028;-75
2022/07/23 03:06:13;;;;;;;3.95;3.00;;;16.90;73.70;;;;;;5116004;28;20055;-75
2022/07/23 03:08:39;;;;;;;5.40;3.03;;;16.90;74.00;;;;;;5116096;28;20028;-75
2022/07/23 03:11:10;;;;;;;5.45;3.25;;;17.10;73.90;;;;;;5116092;28;20077;-75
2022/07/23 03:13:39;;;;;;;5.40;3.35;;;17.30;73.50;;;;;;5116108;28;20012;-75
2022/07/23 03:16:05;;;;;;;3.00;2.53;;;17.40;72.90;;;;;;5115982;28;20027;-75
2022/07/23 03:18:31;;;;;;;3.90;2.70;;;17.40;72.30;;;;;;5115914;28;20035;-75
2022/07/23 03:20:57;;;;;;;4.63;2.90;;;17.30;72.00;;;;;;5115868;28;20044;-76
2022/07/23 03:23:22;;;;;;;3.83;2.63;;;17.30;72.30;;;;;;5114518;28;20031;-75
2022/07/23 03:25:48;;;;;;;4.70;3.08;;;17.40;72.00;;;;;;5115777;28;20032;-75
2022/07/23 03:28:17;;;;;;;5.35;2.95;;;17.20;71.60;;;;;;5115648;28;20079;-75
2022/07/23 03:30:46;;;;;;;5.55;3.13;;;17.10;72.10;;;;;;5115691;28;20032;-75
2022/07/23 03:33:21;;;;;;;4.95;3.35;;;17.00;72.50;;;;;;5115638;28;20016;-75
2022/07/23 03:35:47;;;;;;;5.20;3.25;;;17.10;72.60;;;;;;5115663;28;20032;-75
2022/07/23 03:38:14;;;;;;;5.90;3.00;;;17.20;72.00;;;;;;5115567;28;20087;-75
2022/07/23 03:40:40;;;;;;;5.88;3.42;;;17.20;71.80;;;;;;5115513;28;20024;-75
2022/07/23 03:43:05;;;;;;;4.03;3.13;;;17.30;71.90;;;;;;5115479;28;20028;-75
2022/07/23 03:45:32;;;;;;;6.53;3.28;;;17.20;71.80;;;;;;5115517;28;20482;-75
2022/07/23 03:47:57;;;;;;;4.95;3.20;;;17.10;72.10;;;;;;5115276;28;20053;-75
2022/07/23 03:50:23;;;;;;;4.70;2.92;;;17.10;72.20;;;;;;5115453;28;20019;-75
2022/07/23 03:52:49;;;;;;;4.85;2.83;;;17.10;72.30;;;;;;5115274;28;20020;-75
2022/07/23 03:55:15;;;;;;;4.18;2.85;;;17.10;72.00;;;;;;5115199;28;20023;-75
2022/07/23 03:57:40;;;;;;;5.32;2.90;;;17.10;71.80;;;;;;5097343;28;20038;-75
2022/07/23 04:00:09;;;;;;;4.80;3.10;;;17.00;71.70;;;;;;5115254;28;20040;-75
2022/07/23 04:02:35;;;;;;;4.47;2.72;;;17.00;71.70;;;;;;5115048;28;20046;-75
2022/07/23 04:05:01;;;;;;;5.03;3.00;;;17.00;71.30;;;;;;5115054;28;20024;-75
2022/07/23 04:07:26;;;;;;;4.97;2.90;;;16.80;71.30;;;;;;5114721;28;20498;-75
2022/07/23 04:09:52;;;;;;;4.68;2.92;;;16.70;71.90;;;;;;5114914;28;20039;-75
2022/07/23 04:12:18;;;;;;;13.50;3.28;;;16.70;72.10;;;;;;5097140;28;20074;-75
2022/07/23 04:14:44;;;;;;;5.25;2.63;;;16.70;72.30;;;;;;5115001;28;20020;-75
2022/07/23 04:17:10;;;;;;;4.60;3.10;;;16.80;72.10;;;;;;5114774;28;20032;-75
2022/07/23 04:19:39;;;;;;;7.28;3.22;;;16.90;72.70;;;;;;5114765;28;20039;-76
2022/07/23 04:22:06;;;;;;;4.03;3.10;;;17.00;72.00;;;;;;5114850;28;20088;-75
2022/07/23 04:24:32;;;;;;;5.43;3.20;;;16.90;72.20;;;;;;5114681;28;20024;-76
2022/07/23 04:26:58;;;;;;;5.28;2.85;;;16.90;72.70;;;;;;5114526;28;20399;-75
2022/07/23 04:29:24;;;;;;;7.13;3.50;;;16.80;72.70;;;;;;5096692;28;20024;-76
2022/07/23 04:31:49;;;;;;;5.88;3.45;;;16.90;72.90;;;;;;5114529;28;20079;-75
2022/07/23 04:34:15;;;;;;;5.53;3.47;;;17.00;72.90;;;;;;5114076;28;20045;-76
2022/07/23 04:36:41;;;;;;;4.38;3.33;;;17.00;72.80;;;;;;5114588;28;20042;-76
2022/07/23 04:39:06;;;;;;;6.00;3.67;;;16.90;73.10;;;;;;5114359;28;20032;-75
2022/07/23 04:41:32;;;;;;;4.53;3.15;;;17.00;73.30;;;;;;5114356;28;20020;-75
2022/07/23 04:43:58;;;;;;;4.65;3.00;;;17.00;73.30;;;;;;5096265;28;20024;-75
2022/07/23 04:46:23;;;;;;;6.35;3.63;;;17.00;73.70;;;;;;5114234;28;20039;-75
2022/07/23 04:48:49;;;;;;;5.00;3.53;;;17.00;74.10;;;;;;5096269;28;20028;-76
2022/07/23 04:51:15;;;;;;;7.05;3.60;;;17.00;74.00;;;;;;5114166;28;20046;-76
2022/07/23 04:53:40;;;;;;;6.38;3.50;;;17.00;74.20;;;;;;5096369;28;20024;-75
2022/07/23 04:56:06;;;;;;;6.63;3.60;;;17.10;74.30;;;;;;5114093;28;20058;-76
2022/07/23 04:58:32;;;;;;;5.20;3.85;;;17.20;74.20;;;;;;5096134;28;20020;-76
2022/07/23 05:00:58;;;;;;;5.75;3.45;;;17.10;74.40;;;;;;5114020;28;20031;-76
2022/07/23 05:03:23;;;;;;;6.25;3.85;;;17.20;74.80;;;;;;5096007;28;20020;-76
2022/07/23 05:05:49;;;;;;;4.80;3.30;;;17.30;75.00;;;;;;5096027;28;20406;-76
2022/07/23 05:08:15;;;;;;;6.85;3.50;;;17.40;75.10;;;;;;5113676;28;20044;-76
2022/07/23 05:10:41;;;;;;;6.55;3.85;;;17.50;75.00;;;;;;5113818;28;20020;-75
2022/07/23 05:13:07;;;;;;;6.38;3.90;;;17.40;75.10;;;;;;5113821;28;20032;-76
2022/07/23 05:15:32;;;;;;;6.55;3.70;;;17.40;75.40;;;;;;5113785;28;20046;-76
2022/07/23 05:17:58;;;;;;;8.15;3.95;;;17.50;75.50;;;;;;5113740;28;20035;-76
2022/07/23 05:20:23;;;;;;;6.93;4.13;;;17.60;75.50;;;;;;5113714;28;20036;-76
2022/07/23 05:22:49;;;;;;;7.10;4.43;;;17.60;75.30;;;;;;5113692;28;20084;-75
2022/07/23 05:25:15;;;;;;;8.43;4.30;;;17.60;75.30;;;;;;5095790;28;20408;-75
2022/07/23 05:27:40;;;;;;;6.35;4.22;;;17.70;75.40;;;;;;5113525;28;20062;-75
2022/07/23 05:30:07;;;;;;;6.45;4.60;;;17.70;75.30;;;;;;5113534;28;20051;-76
2022/07/23 05:32:32;;;;;;;7.00;4.70;;;17.80;75.30;;;;;;5113558;28;20111;-75
2022/07/23 05:34:58;;;;;;;6.55;4.40;;;17.80;75.40;;;;;;5113558;28;20031;-75
2022/07/23 05:37:24;;;;;;;6.53;4.25;;;17.80;75.60;;;;;;5113547;28;20106;-76
2022/07/23 05:39:49;;;;;;;7.28;4.57;;;17.90;75.60;;;;;;5095685;28;20029;-76
2022/07/23 05:42:15;;;;;;;7.53;4.65;;;18.00;75.60;;;;;;5095757;28;20032;-76
2022/07/23 05:44:41;;;;;;;9.65;5.38;;;17.90;75.90;;;;;;5095669;28;20052;-76
2022/07/23 05:47:07;;;;;;;7.78;4.75;;;17.80;76.10;;;;;;5116074;28;20057;-76
2022/07/23 05:49:32;;;;;;;7.20;4.90;;;17.90;76.00;;;;;;5117627;28;20024;-76
2022/07/23 05:51:58;;;;;;;11.63;4.90;;;18.00;75.90;;;;;;5117615;28;20032;-76
2022/07/23 05:54:24;;;;;;;6.72;4.68;;;18.00;76.00;;;;;;5117582;28;20076;-76
2022/07/23 05:56:50;;;;;;;6.97;4.63;;;18.10;75.90;;;;;;5117509;28;20032;-75
2022/07/23 05:59:15;;;;;;;8.90;4.70;;;18.20;75.80;;;;;;5082973;28;20032;-75
2022/07/23 06:01:41;;;;;;;7.53;4.78;;;18.20;75.40;;;;;;5117413;28;20042;-76
2022/07/23 06:04:07;;;;;;;7.85;4.65;;;18.10;75.20;;;;;;5099503;28;20028;-75
2022/07/23 06:06:33;;;;;;;7.40;4.80;;;18.10;75.30;;;;;;5117174;28;20099;-75
2022/07/23 06:08:58;;;;;;;6.68;4.10;;;18.20;75.20;;;;;;5099421;28;20032;-76
2022/07/23 06:11:24;;;;;;;9.88;4.70;;;18.20;75.00;;;;;;5117256;28;20028;-76
2022/07/23 06:13:50;;;;;;;7.78;4.57;;;18.20;75.00;;;;;;5117191;28;20028;-76
2022/07/23 06:16:15;;;;;;;7.60;4.40;;;18.20;75.10;;;;;;5117159;28;20021;-76
2022/07/23 06:18:41;;;;;;;7.07;4.65;;;18.30;75.10;;;;;;5117119;28;20054;-76
2022/07/23 06:21:07;;;;;;;7.72;4.78;;;18.40;75.40;;;;;;5117008;28;20032;-76
2022/07/23 06:23:32;;;;;;;8.10;4.95;;;18.40;75.30;;;;;;5117002;28;20048;-75
2022/07/23 06:25:58;;;;;;;8.98;5.30;;;18.50;75.30;;;;;;5116997;28;20040;-76
2022/07/23 06:28:23;;;;;;;7.85;4.32;;;18.50;75.40;;;;;;5116790;28;20028;-76
2022/07/23 06:30:49;;;;;;;8.00;5.25;;;18.60;75.10;;;;;;5099003;28;20046;-75
2022/07/23 06:33:15;;;;;;;9.25;5.13;;;18.70;74.90;;;;;;5116842;28;20028;-76
2022/07/23 06:35:40;;;;;;;7.35;4.80;;;18.70;74.60;;;;;;5116773;28;20028;-76
2022/07/23 06:38:06;;;;;;;7.20;4.40;;;18.80;74.40;;;;;;5116759;28;20032;-75
2022/07/23 06:40:31;;;;;;;8.70;4.70;;;18.80;74.10;;;;;;5116678;28;20049;-76
2022/07/23 06:42:57;;;;;;;6.55;3.88;;;18.90;73.90;;;;;;5116654;28;20028;-76
2022/07/23 06:45:23;;;;;;;8.50;4.22;;;19.00;73.90;;;;;;5098731;28;20032;-75
2022/07/23 06:47:49;;;;;;;7.65;4.20;;;19.00;73.90;;;;;;5116454;28;20024;-75
2022/07/23 06:50:14;;;;;;;7.50;4.15;;;19.10;73.70;;;;;;5116504;28;20411;-75
2022/07/23 06:52:40;;;;;;;7.50;4.32;;;19.10;73.70;;;;;;5116459;28;20036;-75
2022/07/23 06:55:06;;;;;;;6.82;3.78;;;19.10;73.80;;;;;;5116556;28;20024;-76
2022/07/23 06:57:32;;;;;;;6.70;4.10;;;19.20;73.50;;;;;;5115980;28;20039;-76
2022/07/23 06:59:57;;;;;;;7.93;3.97;;;19.20;73.20;;;;;;5116304;28;20024;-76
2022/07/23 07:02:23;;;;;;;5.90;3.80;;;19.20;72.90;;;;;;5116403;28;20028;-76
2022/07/23 07:04:49;;;;;;;6.18;3.97;;;19.30;72.70;;;;;;5116227;28;20059;-75
2022/07/23 07:07:15;;;;;;;5.60;3.53;;;19.30;72.40;;;;;;5115916;28;20052;-75
2022/07/23 07:09:40;;;;;;;6.65;3.70;;;19.30;72.40;;;;;;5116121;28;20046;-75
2022/07/23 07:12:06;;;;;;;5.43;3.30;;;19.40;72.30;;;;;;5116141;28;20054;-75
2022/07/23 07:14:32;;;;;;;5.22;3.25;;;19.40;72.20;;;;;;5116006;28;20044;-75
2022/07/23 07:16:57;;;;;;;6.53;3.78;;;19.40;72.10;;;;;;5115939;28;20025;-76
2022/07/23 07:19:23;;;;;;;5.18;3.40;;;19.50;72.40;;;;;;5115923;28;20028;-76
2022/07/23 07:21:49;;;;;;;4.70;3.20;;;19.50;72.00;;;;;;5115995;28;20028;-76
2022/07/23 07:24:14;;;;;;;5.82;3.60;;;19.60;71.70;;;;;;5115869;28;20032;-76
2022/07/23 07:26:40;;;;;;;6.53;3.50;;;19.60;71.50;;;;;;5115942;28;20030;-76
2022/07/23 07:29:06;;;;;;;6.78;3.03;;;19.70;71.40;;;;;;5115657;28;20020;-76
2022/07/23 07:31:32;;;;;;;4.75;3.15;;;19.80;70.90;;;;;;5115747;28;20398;-76
2022/07/23 07:33:58;;;;;;;5.45;3.25;;;19.70;69.80;;;;;;5115684;28;20036;-76
2022/07/23 07:36:23;;;;;;;4.63;3.00;;;19.70;69.60;;;;;;5115631;28;20033;-76
2022/07/23 07:38:49;;;;;;;4.95;3.08;;;19.80;69.20;;;;;;5115594;28;20032;-76
2022/07/23 07:41:15;;;;;;;4.65;3.00;;;19.80;69.10;;;;;;5115520;28;20024;-76
2022/07/23 07:43:41;;;;;;;7.20;3.60;;;19.90;68.60;;;;;;5097613;28;20043;-75
2022/07/23 07:46:09;;;;;;;6.03;3.60;;;19.80;68.40;;;;;;5115393;28;20028;-76
2022/07/23 07:48:36;;;;;;;4.25;2.72;;;19.90;68.70;;;;;;5115314;28;20028;-76
2022/07/23 07:51:03;;;;;;;6.22;3.00;;;20.00;68.40;;;;;;5115326;28;20024;-76
2022/07/23 07:53:29;;;;;;;4.70;2.65;;;20.00;68.30;;;;;;5097655;28;20031;-76
2022/07/23 07:55:54;;;;;;;3.83;2.60;;;20.10;67.20;;;;;;5115382;28;20072;-75
2022/07/23 07:58:20;;;;;;;3.60;2.22;;;20.10;66.80;;;;;;5097353;28;20043;-76
2022/07/23 08:00:46;;;;;;;4.75;2.15;;;20.10;67.40;;;;;;5115164;28;20029;-76
2022/07/23 08:03:11;;;;;;;4.85;2.70;;;20.20;67.70;;;;;;5115056;28;20032;-75
2022/07/23 08:05:37;;;;;;;4.78;2.22;;;20.30;67.40;;;;;;5115039;28;20020;-76
2022/07/23 08:08:03;;;;;;;4.80;2.50;;;20.40;66.90;;;;;;5114658;28;20087;-75
2022/07/23 08:10:31;;;;;;;4.50;2.60;;;20.40;66.70;;;;;;5096465;28;20044;-75
2022/07/23 08:12:58;;;;;;;4.57;2.45;;;20.50;66.80;;;;;;5114939;28;20034;-75
2022/07/23 08:15:26;;;;;;;7.85;2.75;;;20.50;66.10;;;;;;5114864;28;20058;-75
2022/07/23 08:17:53;;;;;;;6.47;3.15;;;20.60;66.50;;;;;;5114834;28;20031;-75
2022/07/23 08:20:21;;;;;;;5.20;2.58;;;20.70;65.40;;;;;;5114756;28;20028;-76
2022/07/23 08:22:51;;;;;;;4.22;2.67;;;20.70;64.80;;;;;;5114733;28;20027;-75
2022/07/23 08:25:27;;;;;;;4.75;3.15;;;20.80;64.60;;;;;;5114917;28;20035;-75
2022/07/23 08:27:53;;;;;;;4.95;2.75;;;20.70;63.40;;;;;;5096574;28;20027;-75
2022/07/23 08:30:19;;;;;;;10.68;2.83;;;20.70;64.10;;;;;;5114562;28;20028;-75
2022/07/23 08:32:54;;;;;;;3.47;2.67;;;20.70;64.00;;;;;;5114566;28;20020;-76
2022/07/23 08:35:26;;;;;;;4.53;2.63;;;20.80;63.70;;;;;;5114683;28;20031;-76
2022/07/23 08:37:52;;;;;;;6.72;2.85;;;20.80;63.00;;;;;;5114433;28;20060;-76
2022/07/23 08:40:18;;;;;;;5.65;3.00;;;20.90;63.70;;;;;;5114357;28;20050;-75
2022/07/23 08:42:47;;;;;;;4.20;3.22;;;21.00;64.00;;;;;;5114349;28;20075;-75
2022/07/23 08:45:15;;;;;;;6.05;3.00;;;21.10;63.70;;;;;;5114325;28;20028;-75
2022/07/23 08:47:41;;;;;;;4.45;2.80;;;21.10;63.40;;;;;;5114168;28;20031;-75
2022/07/23 08:50:07;;;;;;;4.90;2.63;;;21.20;63.40;;;;;;5114190;28;20036;-76
2022/07/23 08:52:34;;;;;;;4.38;2.70;;;21.20;63.00;;;;;;5114164;28;20016;-76
2022/07/23 08:55:00;;;;;;;5.07;3.28;;;21.30;63.00;;;;;;5114140;28;20089;-75
2022/07/23 08:57:25;;;;;;;4.25;3.10;;;21.20;62.40;;;;;;5096209;28;20035;-75
2022/07/23 08:59:51;;;;;;;6.18;3.28;;;21.20;61.60;;;;;;5114068;28;20060;-75
2022/07/23 09:02:17;;;;;;;4.32;3.13;;;21.20;62.60;;;;;;5114012;28;20020;-75
2022/07/23 09:04:43;;;;;;;5.78;3.50;;;21.30;62.80;;;;;;5113994;28;20024;-75
2022/07/23 09:07:09;;;;;;;5.90;3.67;;;21.30;63.10;;;;;;5113682;28;20059;-75
2022/07/23 09:09:35;;;;;;;5.43;3.42;;;21.40;62.70;;;;;;5113916;28;20027;-75
2022/07/23 09:12:07;;;;;;;7.07;3.63;;;21.50;63.50;;;;;;5095928;28;20024;-75
2022/07/23 09:14:43;;;;;;;;;;;21.60;63.20;;;;;;5114253;28;20020;-75
2022/07/23 09:17:10;;;;;;;5.03;3.00;;;21.60;62.60;;;;;;5113804;28;19904;-75
2022/07/23 09:19:36;;;;;;;4.53;2.63;;;21.60;63.10;;;;;;5113715;28;20050;-75
2022/07/23 09:22:21;;;;;;;4.18;2.33;;;21.70;62.30;;;;;;5113712;28;20021;-75
2022/07/23 09:25:14;;;;;;;3.97;2.83;;;21.80;61.00;;;;;;5113556;28;20035;-75
2022/07/23 09:27:50;;;;;;;4.93;2.90;;;21.90;60.90;;;;;;5109940;28;20036;-75
2022/07/23 09:30:16;;;;;;;5.70;2.97;;;21.90;60.30;;;;;;5113652;28;20024;-75
2022/07/23 09:32:42;;;;;;;5.15;2.83;;;21.90;59.90;;;;;;5095800;28;20035;-75
2022/07/23 09:35:08;;;;;;;3.15;2.38;;;21.90;60.40;;;;;;5113549;28;20024;-75
2022/07/23 09:37:34;;;;;;;4.70;2.97;;;22.00;60.60;;;;;;5095616;28;20048;-75
2022/07/23 09:40:06;;;;;;;4.97;2.80;;;22.00;61.10;;;;;;5113499;28;20032;-75
2022/07/23 09:42:31;;;;;;;5.03;2.90;;;22.10;60.50;;;;;;5113458;28;20028;-75
2022/07/23 09:44:58;;;;;;;3.75;2.67;;;22.20;60.30;;;;;;5113441;28;20036;-75
2022/07/23 09:47:28;;;;;;;4.60;2.55;;;22.20;60.00;;;;;;5113400;28;20024;-75
2022/07/23 09:50:12;;;;;;;4.72;2.55;;;22.20;60.40;;;;;;5113439;28;20080;-75
2022/07/23 09:52:47;;;;;;;3.85;2.17;;;22.10;60.20;;;;;;5113342;28;20057;-75
2022/07/23 09:55:14;;;;;;;3.85;2.20;;;22.10;60.70;;;;;;5113399;28;20044;-75
2022/07/23 09:57:50;;;;;;;3.90;2.40;;;22.20;60.70;;;;;;5113371;28;20051;-76
2022/07/23 10:00:15;;;;;;;5.15;2.70;;;22.30;60.10;;;;;;5113412;28;20040;-76
2022/07/23 10:02:41;;;;;;;5.65;2.60;;;22.40;60.40;;;;;;5113304;28;20091;-75
2022/07/23 10:05:07;;;;;;;3.95;2.80;;;22.50;60.80;;;;;;5113428;28;20039;-75
2022/07/23 10:07:36;;;;;;;5.88;3.35;;;22.60;60.90;;;;;;5112977;28;20048;-75
2022/07/23 10:10:03;;;;;;;4.35;3.08;;;22.70;59.80;;;;;;5113262;28;20445;-75
2022/07/23 10:15:14;;;;;;;5.00;2.70;;;22.80;59.80;;;;;;5113359;28;20039;-75
2022/07/23 10:17:40;;;;;;;3.83;3.00;;;23.00;60.10;;;;;;5095456;28;20025;-75
2022/07/23 10:20:06;;;;;;;4.18;2.40;;;23.10;59.50;;;;;;5113127;28;20046;-75
2022/07/23 10:22:54;;;;;;;4.30;2.13;;;23.20;59.00;;;;;;5113097;28;20062;-75
2022/07/23 10:25:45;;;;;;;6.20;2.95;;;23.20;57.60;;;;;;5113301;28;20020;-75
2022/07/23 10:28:43;;;;;;;6.40;2.97;;;23.20;57.10;;;;;;5112996;28;20024;-75
2022/07/23 10:31:17;;;;;;;3.78;2.20;;;23.30;56.70;;;;;;5106719;28;20467;-75
2022/07/23 10:34:02;;;;;;;5.20;3.13;;;23.20;56.70;;;;;;5116544;28;20020;-75
2022/07/23 10:36:53;;;;;;;2.85;2.00;;;23.40;57.00;;;;;;5116980;28;20028;-75
2022/07/23 10:39:30;;;;;;;5.15;1.95;;;23.40;54.30;;;;;;5105159;28;20036;-76
2022/07/23 10:42:10;;;;;;;3.70;2.58;;;23.50;55.40;;;;;;5116761;28;20020;-75
2022/07/23 10:44:45;;;;;;;4.95;2.55;;;23.50;54.70;;;;;;5116641;28;20016;-75
2022/07/23 10:50:19;;;;;;;3.80;2.03;;;23.60;55.40;;;;;;5116796;28;20043;-76
2022/07/23 10:53:15;;;;;;;4.70;3.10;;;23.70;54.70;;;;;;5116494;28;20031;-76
2022/07/23 10:55:52;;;;;;;4.80;2.65;;;23.80;55.00;;;;;;5114943;28;20040;-75
2022/07/23 10:58:22;;;;;;;7.15;3.03;;;23.80;53.00;;;;;;5116561;28;20099;-75
2022/07/23 11:00:48;;;;;;;4.47;2.70;;;23.70;52.50;;;;;;5116336;28;20059;-76
2022/07/23 11:03:38;;;;;;;4.72;2.75;;;23.60;54.40;;;;;;5116423;28;20016;-76
2022/07/23 11:06:05;;;;;;;6.30;2.50;;;23.70;54.30;;;;;;5116257;28;20031;-75
2022/07/23 11:08:31;;;;;;;6.03;2.28;;;23.70;54.90;;;;;;5115957;28;20463;-76
2022/07/23 11:11:03;;;;;;;3.80;2.50;;;23.90;55.30;;;;;;5116162;28;20028;-76
2022/07/23 11:13:31;;;;;;;5.17;2.40;;;24.00;54.70;;;;;;5116135;28;20015;-75
2022/07/23 11:16:02;;;;;;;4.10;2.03;;;24.20;55.00;;;;;;5116013;28;20020;-75
2022/07/23 11:18:43;;;;;;;5.03;2.17;;;24.30;54.10;;;;;;5116022;28;20024;-75
2022/07/23 11:21:20;;;;;;;3.58;2.17;;;24.40;54.00;;;;;;5115902;28;20028;-75
2022/07/23 11:24:18;;;;;;;4.35;2.10;;;24.50;54.00;;;;;;5115867;28;20035;-75
2022/07/23 11:26:59;;;;;;;3.55;1.80;;;24.70;53.70;;;;;;5115888;28;20040;-76
2022/07/23 11:29:28;;;;;;;4.13;2.22;;;24.70;53.10;;;;;;5115735;28;20054;-75
2022/07/23 11:32:00;;;;;;;3.92;2.10;;;24.70;51.20;;;;;;5097817;28;20031;-75
2022/07/23 11:34:33;;;;;;;3.63;2.30;;;24.70;50.90;;;;;;5097782;28;20028;-75
2022/07/23 11:37:04;;;;;;;3.33;2.70;;;24.70;49.90;;;;;;5115612;28;20020;-76
2022/07/23 11:39:31;;;;;;;4.20;2.25;;;24.70;50.50;;;;;;5097563;28;20020;-75
2022/07/23 11:41:58;;;;;;;2.92;2.13;;;24.60;51.50;;;;;;5115554;28;20080;-75
2022/07/23 11:44:28;;;;;;;4.05;2.38;;;24.60;51.90;;;;;;5114288;28;20024;-75
2022/07/23 11:47:06;;;;;;;4.50;2.67;;;24.70;51.90;;;;;;5115522;28;20429;-74
2022/07/23 11:49:32;;;;;;;3.55;2.58;;;24.70;51.60;;;;;;5115427;28;20059;-74
2022/07/23 11:52:07;;;;;;;4.70;2.40;;;24.70;51.60;;;;;;5115437;28;20095;-75
2022/07/23 11:54:34;;;;;;;3.65;2.35;;;24.90;52.50;;;;;;5097392;28;20114;-75
2022/07/23 11:57:01;;;;;;;3.03;2.22;;;25.00;51.80;;;;;;5115392;28;20084;-74
2022/07/23 11:59:31;;;;;;;3.17;2.00;;;25.00;50.50;;;;;;5115206;28;20025;-74
2022/07/23 12:02:02;;;;;;;4.22;1.95;;;25.10;50.50;;;;;;5115167;28;20031;-74
2022/07/23 12:04:57;;;;;;;3.27;2.03;;;25.20;50.60;;;;;;5115107;28;20073;-74
2022/07/23 12:07:36;;;;;;;6.38;1.98;;;25.20;48.30;;;;;;5093242;28;20056;-75
2022/07/23 12:10:23;;;;;;;4.63;2.30;;;25.30;49.70;;;;;;5115037;28;20020;-75
2022/07/23 12:12:49;;;;;;;4.55;2.40;;;25.40;48.60;;;;;;5114897;28;20020;-75
2022/07/23 12:15:16;;;;;;;3.05;2.15;;;25.40;49.40;;;;;;5114861;28;20027;-75
2022/07/23 12:17:44;;;;;;;3.00;2.50;;;25.50;49.20;;;;;;5114852;28;20080;-75
2022/07/23 12:20:14;;;;;;;4.20;2.72;;;25.60;48.40;;;;;;5114795;28;20024;-74
2022/07/23 12:22:43;;;;;;;3.20;2.35;;;25.70;48.10;;;;;;5114835;28;20040;-75
2022/07/23 12:25:15;;;;;;;3.92;2.45;;;25.80;47.90;;;;;;5114692;28;20031;-74
2022/07/23 12:27:41;;;;;;;10.13;3.25;;;25.80;47.60;;;;;;5096912;28;20024;-74
2022/07/23 12:30:20;;;;;;;3.45;2.40;;;25.80;47.90;;;;;;5096601;28;20034;-75
2022/07/23 12:32:48;;;;;;;4.85;2.72;;;25.90;47.20;;;;;;5114759;28;20012;-75
2022/07/23 12:35:14;;;;;;;4.57;2.80;;;26.00;47.50;;;;;;5114515;28;20016;-74
2022/07/23 12:37:42;;;;;;;3.95;2.78;;;26.10;48.40;;;;;;5114476;28;20058;-74
2022/07/23 12:40:22;;;;;;;5.70;2.67;;;26.20;46.80;;;;;;5114588;28;20022;-75
2022/07/23 12:42:56;;;;;;;3.70;2.67;;;26.20;47.00;;;;;;5114400;28;20039;-75
2022/07/23 12:45:22;;;;;;;5.43;2.65;;;26.30;46.90;;;;;;5114182;28;20043;-74
2022/07/23 12:47:53;;;;;;;4.10;2.47;;;26.30;46.60;;;;;;5114203;28;20020;-74
2022/07/23 12:50:37;;;;;;;4.00;2.70;;;26.40;46.80;;;;;;5114257;28;20047;-74
2022/07/23 12:53:12;;;;;;;3.83;2.50;;;26.60;46.30;;;;;;5096509;28;20024;-74
2022/07/23 12:55:39;;;;;;;4.20;2.45;;;26.60;46.30;;;;;;5095809;28;20091;-74
2022/07/23 12:58:16;;;;;;;3.40;2.50;;;26.60;45.40;;;;;;5114135;28;20028;-74